createdAt,value
2022-11-08T00:01:31.788Z,100.00
2022-11-08T00:04:00.347Z,100.00
2022-11-08T00:06:45.383Z,100.00
2022-11-08T00:09:30.251Z,100.00
2022-11-08T00:12:15.137Z,100.00
2022-11-08T00:14:41.633Z,100.00
2022-11-08T00:17:08.184Z,100.00
2022-11-08T00:19:36.090Z,100.00
2022-11-08T00:22:02.520Z,100.00
2022-11-08T00:24:28.984Z,100.00
2022-11-08T00:26:56.092Z,100.00
2022-11-08T00:29:22.512Z,100.00
2022-11-08T00:31:49.053Z,100.00
2022-11-08T00:34:15.686Z,100.00
2022-11-08T00:36:43.505Z,100.00
2022-11-08T00:39:09.989Z,100.00
2022-11-08T00:41:36.538Z,100.00
2022-11-08T00:44:03.196Z,100.00
2022-11-08T00:46:29.618Z,100.00
2022-11-08T00:48:56.074Z,100.00
2022-11-08T00:51:22.544Z,100.00
2022-11-08T00:53:50.413Z,100.00
2022-11-08T00:56:16.910Z,100.00
2022-11-08T00:58:43.925Z,100.00
2022-11-08T01:01:11.000Z,100.00
2022-11-08T01:03:37.757Z,100.00
2022-11-08T01:06:05.179Z,100.00
2022-11-08T01:08:31.596Z,100.00
2022-11-08T01:11:01.872Z,100.00
2022-11-08T01:13:28.394Z,100.00
2022-11-08T01:15:55.021Z,100.00
2022-11-08T01:18:21.782Z,100.00
2022-11-08T01:20:48.951Z,100.00
2022-11-08T01:23:15.814Z,100.00
2022-11-08T01:25:42.996Z,100.00
2022-11-08T01:28:11.138Z,100.00
2022-11-08T01:30:38.118Z,100.00
2022-11-08T01:33:05.129Z,100.00
2022-11-08T01:35:32.287Z,100.00
2022-11-08T01:37:58.716Z,100.00
2022-11-08T01:40:25.270Z,100.00
2022-11-08T01:42:51.750Z,100.00
2022-11-08T01:45:33.063Z,100.00
2022-11-08T01:48:00.899Z,100.00
2022-11-08T01:50:27.516Z,100.00
2022-11-08T01:52:55.606Z,100.00
2022-11-08T01:55:23.115Z,100.00
2022-11-08T01:57:51.494Z,100.00
2022-11-08T02:00:18.436Z,100.00
2022-11-08T02:02:47.537Z,100.00
2022-11-08T02:05:25.752Z,100.00
2022-11-08T02:07:58.254Z,100.00
2022-11-08T02:10:26.498Z,100.00
2022-11-08T02:12:53.538Z,100.00
2022-11-08T02:15:21.698Z,100.00
2022-11-08T02:17:48.195Z,100.00
2022-11-08T02:20:16.272Z,100.00
2022-11-08T02:22:46.609Z,100.00
2022-11-08T02:25:14.617Z,100.00
2022-11-08T02:27:41.099Z,100.00
2022-11-08T02:30:08.127Z,100.00
2022-11-08T02:32:38.168Z,100.00
2022-11-08T02:35:06.294Z,100.00
2022-11-08T02:37:32.974Z,100.00
2022-11-08T02:39:59.412Z,100.00
2022-11-08T02:42:27.202Z,100.00
2022-11-08T02:44:53.670Z,100.00
2022-11-08T02:47:20.138Z,100.00
2022-11-08T02:49:47.006Z,100.00
2022-11-08T02:52:13.539Z,100.00
2022-11-08T02:54:40.036Z,100.00
2022-11-08T02:57:06.528Z,100.00
2022-11-08T02:59:34.408Z,100.00
2022-11-08T03:02:00.959Z,100.00
2022-11-08T03:04:27.572Z,100.00
2022-11-08T03:06:54.080Z,100.00
2022-11-08T03:09:20.524Z,100.00
2022-11-08T03:11:46.996Z,100.00
2022-11-08T03:14:13.470Z,100.00
2022-11-08T03:16:41.239Z,100.00
2022-11-08T03:19:07.677Z,100.00
2022-11-08T03:21:34.841Z,100.00
2022-11-08T03:24:02.078Z,100.00
2022-11-08T03:26:28.481Z,100.00
2022-11-08T03:28:55.157Z,100.00
2022-11-08T03:31:21.605Z,100.00
2022-11-08T03:33:49.443Z,100.00
2022-11-08T03:36:15.925Z,100.00
2022-11-08T03:38:42.354Z,100.00
2022-11-08T03:41:08.756Z,100.00
2022-11-08T03:43:35.211Z,100.00
2022-11-08T03:46:01.618Z,100.00
2022-11-08T03:48:28.029Z,100.00
2022-11-08T03:50:55.812Z,100.00
2022-11-08T03:53:22.323Z,100.00
2022-11-08T03:55:49.038Z,100.00
2022-11-08T03:58:15.777Z,100.00
2022-11-08T04:00:42.583Z,100.00
2022-11-08T04:03:09.526Z,100.00
2022-11-08T04:05:35.988Z,100.00
2022-11-08T04:08:04.546Z,100.00
2022-11-08T04:13:33.550Z,100.00
2022-11-08T04:16:00.095Z,100.00
2022-11-08T04:18:44.985Z,100.00
2022-11-08T04:21:24.498Z,100.00
2022-11-08T04:23:52.608Z,100.00
2022-11-08T04:26:19.646Z,100.00
2022-11-08T04:28:46.309Z,100.00
2022-11-08T04:31:14.158Z,100.00
2022-11-08T04:33:40.955Z,100.00
2022-11-08T04:36:08.828Z,100.00
2022-11-08T04:38:35.371Z,100.00
2022-11-08T04:41:04.237Z,100.00
2022-11-08T04:43:31.094Z,100.00
2022-11-08T04:46:01.567Z,100.00
2022-11-08T04:48:28.082Z,100.00
2022-11-08T04:50:54.559Z,100.00
2022-11-08T04:53:21.183Z,100.00
2022-11-08T04:55:47.637Z,100.00
2022-11-08T04:58:15.749Z,100.00
2022-11-08T05:00:42.420Z,100.00
2022-11-08T05:03:08.887Z,100.00
2022-11-08T05:05:35.311Z,100.00
2022-11-08T05:08:01.857Z,100.00
2022-11-08T05:10:28.297Z,100.00
2022-11-08T05:12:55.793Z,100.00
2022-11-08T05:15:23.686Z,100.00
2022-11-08T05:17:50.127Z,100.00
2022-11-08T05:20:35.296Z,100.00
2022-11-08T05:23:20.673Z,100.00
2022-11-08T05:25:47.190Z,100.00
2022-11-08T05:28:13.772Z,100.00
2022-11-08T05:30:41.588Z,100.00
2022-11-08T05:33:08.102Z,100.00
2022-11-08T05:35:34.877Z,100.00
2022-11-08T05:38:01.458Z,100.00
2022-11-08T05:40:32.222Z,100.00
2022-11-08T05:42:59.932Z,100.00
2022-11-08T05:45:26.369Z,100.00
2022-11-08T05:47:54.720Z,100.00
2022-11-08T05:50:21.228Z,100.00
2022-11-08T05:52:47.667Z,100.00
2022-11-08T05:55:14.156Z,100.00
2022-11-08T05:57:42.055Z,100.00
2022-11-08T06:00:09.101Z,100.00
2022-11-08T06:02:35.660Z,100.00
2022-11-08T06:05:05.704Z,100.00
2022-11-08T06:07:32.207Z,100.00
2022-11-08T06:09:58.718Z,100.00
2022-11-08T06:12:25.113Z,100.00
2022-11-08T06:14:51.740Z,100.00
2022-11-08T06:17:18.173Z,100.00
2022-11-08T06:19:44.648Z,100.00
2022-11-08T06:22:12.480Z,100.00
2022-11-08T06:24:38.924Z,100.00
2022-11-08T06:27:05.488Z,100.00
2022-11-08T06:29:31.950Z,100.00
2022-11-08T06:31:58.837Z,100.00
2022-11-08T06:34:25.323Z,100.00
2022-11-08T06:36:52.701Z,100.00
2022-11-08T06:39:20.563Z,100.00
2022-11-08T06:41:46.988Z,100.00
2022-11-08T06:44:13.433Z,100.00
2022-11-08T06:46:39.870Z,100.00
2022-11-08T06:49:06.327Z,100.00
2022-11-08T06:51:32.898Z,100.00
2022-11-08T06:53:59.360Z,100.00
2022-11-08T06:56:27.184Z,100.00
2022-11-08T06:58:53.604Z,100.00
2022-11-08T07:01:20.160Z,100.00
2022-11-08T07:03:46.697Z,100.00
2022-11-08T07:06:13.162Z,100.00
2022-11-08T07:08:39.718Z,100.00
2022-11-08T07:11:06.542Z,100.00
2022-11-08T07:13:34.450Z,100.00
2022-11-08T07:16:01.002Z,100.00
2022-11-08T07:18:28.031Z,100.00
2022-11-08T07:20:57.936Z,100.00
2022-11-08T07:23:24.514Z,100.00
2022-11-08T07:25:51.047Z,100.00
2022-11-08T07:28:18.708Z,100.00
2022-11-08T07:30:47.029Z,100.00
2022-11-08T07:33:13.937Z,100.00
2022-11-08T07:35:40.549Z,100.00
2022-11-08T07:38:07.264Z,100.00
2022-11-08T07:40:34.094Z,100.00
2022-11-08T07:43:16.240Z,100.00
2022-11-08T07:45:42.893Z,100.00
2022-11-08T07:48:12.794Z,100.00
2022-11-08T07:50:40.289Z,100.00
2022-11-08T07:53:07.248Z,100.00
2022-11-08T07:55:35.450Z,100.00
2022-11-08T07:58:02.242Z,100.00
2022-11-08T08:00:28.878Z,100.00
2022-11-08T08:02:57.504Z,100.00
2022-11-08T08:05:25.396Z,100.00
2022-11-08T08:07:51.875Z,100.00
2022-11-08T08:10:18.317Z,100.00
2022-11-08T08:12:46.012Z,100.00
2022-11-08T08:15:12.560Z,99.73
2022-11-08T08:17:38.971Z,96.02
2022-11-08T08:20:06.090Z,93.67
2022-11-08T08:22:33.893Z,91.04
2022-11-08T08:25:03.070Z,87.77
2022-11-08T08:27:29.943Z,86.70
2022-11-08T08:29:56.563Z,84.40
2022-11-08T08:32:22.998Z,85.11
2022-11-08T08:34:49.421Z,82.09
2022-11-08T08:37:17.367Z,81.07
2022-11-08T08:39:45.284Z,79.33
2022-11-08T08:42:11.871Z,78.56
2022-11-08T08:44:38.304Z,78.52
2022-11-08T08:47:05.034Z,77.95
2022-11-08T08:49:31.467Z,77.85
2022-11-08T08:51:57.972Z,100.00
2022-11-08T08:54:29.195Z,100.00
2022-11-08T08:56:57.334Z,100.00
2022-11-08T09:02:10.867Z,100.00
2022-11-08T09:04:37.310Z,100.00
2022-11-08T09:07:03.930Z,100.00
2022-11-08T09:09:30.499Z,100.00
2022-11-08T09:11:58.406Z,100.00
2022-11-08T09:14:25.143Z,100.00
2022-11-08T09:16:51.630Z,100.00
2022-11-08T09:19:18.843Z,100.00
2022-11-08T09:21:45.364Z,100.00
2022-11-08T09:24:11.915Z,100.00
2022-11-08T09:26:38.417Z,100.00
2022-11-08T09:29:06.325Z,100.00
2022-11-08T09:31:32.762Z,100.00
2022-11-08T09:33:59.269Z,100.00
2022-11-08T09:36:25.804Z,100.00
2022-11-08T09:38:52.324Z,100.00
2022-11-08T09:41:39.511Z,100.00
2022-11-08T09:44:14.033Z,100.00
2022-11-08T09:46:46.934Z,100.00
2022-11-08T09:49:15.491Z,100.00
2022-11-08T09:51:42.229Z,100.00
2022-11-08T09:54:17.103Z,100.00
2022-11-08T09:56:45.949Z,100.00
2022-11-08T09:59:20.258Z,76.11
2022-11-08T10:01:48.721Z,100.00
2022-11-08T10:04:16.295Z,100.00
2022-11-08T10:06:50.077Z,100.00
2022-11-08T10:09:24.986Z,100.00
2022-11-08T10:11:58.896Z,100.00
2022-11-08T10:14:53.481Z,100.00
2022-11-08T10:17:29.532Z,100.00
2022-11-08T10:20:06.695Z,100.00
2022-11-08T10:22:42.258Z,100.00
2022-11-08T10:25:17.577Z,100.00
2022-11-08T10:27:44.095Z,67.42
2022-11-08T10:30:18.056Z,66.59
2022-11-08T10:32:47.653Z,65.27
2022-11-08T10:35:19.816Z,65.25
2022-11-08T10:37:49.576Z,65.48
2022-11-08T10:40:19.381Z,65.25
2022-11-08T10:42:47.027Z,65.40
2022-11-08T10:45:14.924Z,100.00
2022-11-08T10:47:43.844Z,100.00
2022-11-08T10:50:14.380Z,100.00
2022-11-08T10:52:42.405Z,100.00
2022-11-08T10:55:09.932Z,100.00
2022-11-08T10:57:38.157Z,100.00
2022-11-08T11:00:25.773Z,100.00
2022-11-08T11:02:53.537Z,100.00
2022-11-08T11:05:22.675Z,100.00
2022-11-08T11:07:59.189Z,100.00
2022-11-08T11:10:29.490Z,100.00
2022-11-08T11:13:01.097Z,100.00
2022-11-08T11:15:32.406Z,100.00
2022-11-08T11:17:58.909Z,100.00
2022-11-08T11:23:11.015Z,100.00
2022-11-08T11:25:37.461Z,100.00
2022-11-08T11:28:04.046Z,100.00
2022-11-08T11:30:33.037Z,100.00
2022-11-08T11:33:04.425Z,100.00
2022-11-08T11:35:45.281Z,100.00
2022-11-08T11:38:18.925Z,100.00
2022-11-08T11:40:46.848Z,100.00
2022-11-08T11:43:17.612Z,100.00
2022-11-08T11:45:47.246Z,100.00
2022-11-08T11:48:17.141Z,100.00
2022-11-08T11:50:48.148Z,100.00
2022-11-08T11:53:17.345Z,100.00
2022-11-08T11:55:58.952Z,100.00
2022-11-08T11:58:33.152Z,100.00
2022-11-08T12:01:04.331Z,100.00
2022-11-08T12:03:39.892Z,100.00
2022-11-08T12:06:16.482Z,100.00
2022-11-08T12:08:50.314Z,100.00
2022-11-08T12:11:28.731Z,100.00
2022-11-08T12:14:04.609Z,100.00
2022-11-08T12:16:35.658Z,100.00
2022-11-08T12:19:11.032Z,100.00
2022-11-08T12:21:43.051Z,100.00
2022-11-08T12:24:27.459Z,100.00
2022-11-08T12:26:56.715Z,100.00
2022-11-08T12:29:25.915Z,100.00
2022-11-08T12:32:08.070Z,100.00
2022-11-08T12:34:42.838Z,100.00
2022-11-08T12:37:16.169Z,100.00
2022-11-08T12:39:48.284Z,100.00
2022-11-08T12:42:21.882Z,100.00
2022-11-08T12:45:05.653Z,100.00
2022-11-08T12:47:35.856Z,100.00
2022-11-08T12:50:11.489Z,100.00
2022-11-08T12:52:48.062Z,100.00
2022-11-08T12:55:20.288Z,100.00
2022-11-08T12:57:46.981Z,100.00
2022-11-08T13:00:16.497Z,100.00
2022-11-08T13:02:44.369Z,100.00
2022-11-08T13:05:15.732Z,100.00
2022-11-08T13:07:45.683Z,100.00
2022-11-08T13:10:16.823Z,100.00
2022-11-08T13:12:46.626Z,100.00
2022-11-08T13:15:15.668Z,100.00
2022-11-08T13:18:02.141Z,100.00
2022-11-08T13:20:40.215Z,100.00
2022-11-08T13:23:07.314Z,100.00
2022-11-08T13:25:35.115Z,100.00
2022-11-08T13:28:01.576Z,100.00
2022-11-08T13:30:35.294Z,100.00
2022-11-08T13:33:07.955Z,100.00
2022-11-08T13:35:38.031Z,100.00
2022-11-08T13:38:19.802Z,100.00
2022-11-08T13:41:02.236Z,100.00
2022-11-08T13:43:29.571Z,100.00
2022-11-08T13:45:56.739Z,100.00
2022-11-08T13:48:35.474Z,100.00
2022-11-08T13:51:20.731Z,100.00
2022-11-08T13:53:54.269Z,100.00
2022-11-08T13:56:26.141Z,100.00
2022-11-08T13:58:52.935Z,100.00
2022-11-08T14:01:38.891Z,100.00
2022-11-08T14:04:20.326Z,100.00
2022-11-08T14:06:50.651Z,100.00
2022-11-08T14:09:26.981Z,100.00
2022-11-08T14:11:59.718Z,100.00
2022-11-08T14:14:37.147Z,100.00
2022-11-08T14:17:12.503Z,100.00
2022-11-08T14:19:40.064Z,100.00
2022-11-08T14:22:13.205Z,100.00
2022-11-08T14:24:41.428Z,100.00
2022-11-08T14:27:08.040Z,100.00
2022-11-08T14:29:34.548Z,100.00
2022-11-08T14:32:02.251Z,100.00
2022-11-08T14:34:30.263Z,100.00
2022-11-08T14:36:57.160Z,100.00
2022-11-08T14:39:25.759Z,100.00
2022-11-08T14:41:55.330Z,100.00
2022-11-08T14:44:22.783Z,100.00
2022-11-08T14:46:49.300Z,100.00
2022-11-08T14:49:20.347Z,100.00
2022-11-08T14:51:47.292Z,100.00
2022-11-08T14:54:15.952Z,100.00
2022-11-08T14:56:43.456Z,100.00
2022-11-08T14:59:13.330Z,100.00
2022-11-08T15:01:40.556Z,100.00
2022-11-08T15:04:14.304Z,100.00
2022-11-08T15:06:42.076Z,100.00
2022-11-08T15:09:16.800Z,100.00
2022-11-08T15:11:52.619Z,100.00
2022-11-08T15:14:22.154Z,100.00
2022-11-08T15:16:50.006Z,100.00
2022-11-08T15:19:26.693Z,100.00
2022-11-08T15:21:53.403Z,100.00
2022-11-08T15:24:34.113Z,100.00
2022-11-08T15:27:04.552Z,85.38
2022-11-08T15:29:47.689Z,85.35
2022-11-08T15:32:17.178Z,86.12
2022-11-08T15:34:43.995Z,85.85
2022-11-08T15:37:18.995Z,85.79
2022-11-08T15:39:46.075Z,86.51
2022-11-08T15:42:13.447Z,86.08
2022-11-08T15:44:54.779Z,86.48
2022-11-08T15:47:37.077Z,86.72
2022-11-08T15:50:09.009Z,86.16
2022-11-08T15:52:36.071Z,86.34
2022-11-08T15:55:02.672Z,86.43
2022-11-08T15:57:29.148Z,86.56
2022-11-08T15:59:55.651Z,86.95
2022-11-08T16:02:23.007Z,87.24
2022-11-08T16:04:50.867Z,86.90
2022-11-08T16:07:17.439Z,87.55
2022-11-08T16:09:44.087Z,88.23
2022-11-08T16:12:14.460Z,87.87
2022-11-08T16:14:41.257Z,87.69
2022-11-08T16:17:12.155Z,87.34
2022-11-08T16:19:38.732Z,86.45
2022-11-08T16:22:07.493Z,86.80
2022-11-08T16:24:34.127Z,86.37
2022-11-08T16:27:00.974Z,86.42
2022-11-08T16:29:29.190Z,85.64
2022-11-08T16:31:55.751Z,86.55
2022-11-08T16:34:22.442Z,85.52
2022-11-08T16:36:49.695Z,85.59
2022-11-08T16:39:18.967Z,85.49
2022-11-08T16:41:45.556Z,85.13
2022-11-08T16:44:12.148Z,85.33
2022-11-08T16:46:38.749Z,84.73
2022-11-08T16:49:06.550Z,84.92
2022-11-08T16:51:33.145Z,85.23
2022-11-08T16:54:02.416Z,85.87
2022-11-08T16:56:30.294Z,100.00
2022-11-08T16:58:56.822Z,100.00
2022-11-08T17:01:26.972Z,100.00
2022-11-08T17:03:53.527Z,100.00
2022-11-08T17:06:20.084Z,100.00
2022-11-08T17:08:46.828Z,100.00
2022-11-08T17:11:16.577Z,89.83
2022-11-08T17:13:44.553Z,90.25
2022-11-08T17:16:11.624Z,89.08
2022-11-08T17:18:38.152Z,89.32
2022-11-08T17:21:29.927Z,89.83
2022-11-08T17:23:51.614Z,100.00
2022-11-08T17:26:18.114Z,88.23
2022-11-08T17:28:45.900Z,87.84
2022-11-08T17:31:13.324Z,87.66
2022-11-08T17:33:40.119Z,87.45
2022-11-08T17:36:07.600Z,88.05
2022-11-08T17:38:34.734Z,89.81
2022-11-08T17:41:04.942Z,90.36
2022-11-08T17:43:32.065Z,86.40
2022-11-08T17:46:00.814Z,86.77
2022-11-08T17:48:27.596Z,87.10
2022-11-08T17:50:54.114Z,87.35
2022-11-08T17:53:20.963Z,86.75
2022-11-08T17:55:52.059Z,87.15
2022-11-08T17:58:18.917Z,87.15
2022-11-08T18:00:45.404Z,86.90
2022-11-08T18:03:15.802Z,86.46
2022-11-08T18:05:51.579Z,85.68
2022-11-08T18:08:21.501Z,84.78
2022-11-08T18:10:52.268Z,84.20
2022-11-08T18:13:19.297Z,83.71
2022-11-08T18:15:46.188Z,83.35
2022-11-08T18:18:14.097Z,82.88
2022-11-08T18:20:40.807Z,83.12
2022-11-08T18:23:07.296Z,82.15
2022-11-08T18:25:34.239Z,81.84
2022-11-08T18:28:00.817Z,81.46
2022-11-08T18:30:27.323Z,81.11
2022-11-08T18:32:53.861Z,81.11
2022-11-08T18:35:21.802Z,80.78
2022-11-08T18:37:48.314Z,80.64
2022-11-08T18:40:14.906Z,81.17
2022-11-08T18:42:41.445Z,81.28
2022-11-08T18:45:08.750Z,80.54
2022-11-08T18:47:35.256Z,81.21
2022-11-08T18:50:02.395Z,81.88
2022-11-08T18:52:30.340Z,82.28
2022-11-08T18:54:56.791Z,82.19
2022-11-08T18:57:23.362Z,82.41
2022-11-08T18:59:49.949Z,82.37
2022-11-08T19:02:16.581Z,82.01
2022-11-08T19:04:43.028Z,82.11
2022-11-08T19:07:10.181Z,82.14
2022-11-08T19:09:39.355Z,82.06
2022-11-08T19:12:06.343Z,81.92
2022-11-08T19:14:35.247Z,81.49
2022-11-08T19:17:02.040Z,81.27
2022-11-08T19:19:29.421Z,81.50
2022-11-08T19:21:55.923Z,81.07
2022-11-08T19:24:22.467Z,80.79
2022-11-08T19:26:50.381Z,80.57
2022-11-08T19:29:16.937Z,80.86
2022-11-08T19:31:45.419Z,80.78
2022-11-08T19:34:11.937Z,80.54
2022-11-08T19:36:43.441Z,80.32
2022-11-08T19:39:13.505Z,80.20
2022-11-08T19:41:40.005Z,80.65
2022-11-08T19:44:08.007Z,80.18
2022-11-08T19:46:34.703Z,79.79
2022-11-08T19:49:02.481Z,79.39
2022-11-08T19:51:29.902Z,79.38
2022-11-08T19:53:57.198Z,79.41
2022-11-08T19:56:43.432Z,79.34
2022-11-08T19:59:11.823Z,80.00
2022-11-08T20:01:40.130Z,80.60
2022-11-08T20:04:07.545Z,81.31
2022-11-08T20:06:34.496Z,81.45
2022-11-08T20:09:01.952Z,82.01
2022-11-08T20:11:30.329Z,82.27
2022-11-08T20:13:58.557Z,82.72
2022-11-08T20:16:27.610Z,83.93
2022-11-08T20:18:57.954Z,84.16
2022-11-08T20:21:24.708Z,84.89
2022-11-08T20:23:51.510Z,85.19
2022-11-08T20:26:19.243Z,100.00
2022-11-08T20:28:55.823Z,100.00
2022-11-08T20:31:23.513Z,85.19
2022-11-08T20:33:53.036Z,85.95
2022-11-08T20:36:20.438Z,85.10
2022-11-08T20:38:46.923Z,84.78
2022-11-08T20:41:14.566Z,84.75
2022-11-08T20:43:43.335Z,85.28
2022-11-08T20:46:11.668Z,85.84
2022-11-08T20:48:42.927Z,86.22
2022-11-08T20:51:12.032Z,85.87
2022-11-08T20:53:38.648Z,86.44
2022-11-08T20:56:06.196Z,85.81
2022-11-08T20:58:33.926Z,85.74
2022-11-08T21:01:01.151Z,86.82
2022-11-08T21:03:28.139Z,86.54
2022-11-08T21:05:55.807Z,85.80
2022-11-08T21:11:11.410Z,86.35
2022-11-08T21:13:40.028Z,86.24
2022-11-08T21:16:27.206Z,86.96
2022-11-08T21:18:55.592Z,87.27
2022-11-08T21:21:22.446Z,87.94
2022-11-08T21:23:50.363Z,88.14
2022-11-08T21:26:19.017Z,88.57
2022-11-08T21:28:45.807Z,89.51
2022-11-08T21:31:12.565Z,89.78
2022-11-08T21:33:41.777Z,90.46
2022-11-08T21:36:09.203Z,90.65
2022-11-08T21:38:36.458Z,90.98
2022-11-08T21:41:08.022Z,91.76
2022-11-08T21:43:35.349Z,92.64
2022-11-08T21:46:10.948Z,92.35
2022-11-08T21:48:37.398Z,93.31
2022-11-08T21:51:03.939Z,93.29
2022-11-08T21:53:30.359Z,93.97
2022-11-08T21:55:57.110Z,94.35
2022-11-08T21:58:24.948Z,95.19
2022-11-08T22:00:51.868Z,95.53
2022-11-08T22:03:18.709Z,96.33
2022-11-08T22:05:45.152Z,96.76
2022-11-08T22:08:11.582Z,96.32
2022-11-08T22:10:38.053Z,96.40
2022-11-08T22:13:04.523Z,97.18
2022-11-08T22:15:32.318Z,97.75
2022-11-08T22:18:15.638Z,98.31
2022-11-08T22:21:06.265Z,99.34
2022-11-08T22:23:32.826Z,99.91
2022-11-08T22:25:59.236Z,99.68
2022-11-08T22:28:25.737Z,99.83
2022-11-08T22:30:53.898Z,100.00
2022-11-08T22:33:20.531Z,100.00
2022-11-08T22:35:47.272Z,100.00
2022-11-08T22:38:14.132Z,100.00
2022-11-08T22:40:41.047Z,100.00
2022-11-08T22:43:07.541Z,100.00
2022-11-08T22:45:37.036Z,100.00
2022-11-08T22:48:05.105Z,100.00
2022-11-08T22:50:31.551Z,100.00
2022-11-08T22:52:58.086Z,100.00
2022-11-08T22:55:24.539Z,100.00
2022-11-08T22:57:50.978Z,100.00
2022-11-08T23:00:17.583Z,100.00
2022-11-08T23:02:45.788Z,100.00
2022-11-08T23:05:13.789Z,100.00
2022-11-08T23:07:40.218Z,100.00
2022-11-08T23:10:06.970Z,100.00
2022-11-08T23:12:51.777Z,100.00
2022-11-08T23:15:53.012Z,100.00
2022-11-08T23:18:19.738Z,100.00
2022-11-08T23:21:06.564Z,100.00
2022-11-08T23:23:51.501Z,100.00
2022-11-08T23:26:38.211Z,100.00
2022-11-08T23:29:23.280Z,100.00
2022-11-08T23:31:49.798Z,100.00
2022-11-08T23:34:16.282Z,100.00
2022-11-08T23:36:44.140Z,100.00
2022-11-08T23:39:10.738Z,100.00
2022-11-08T23:41:55.834Z,100.00
2022-11-08T23:44:24.968Z,100.00
2022-11-08T23:46:51.743Z,100.00
2022-11-08T23:49:18.155Z,100.00
2022-11-08T23:51:46.033Z,100.00
2022-11-08T23:54:12.530Z,100.00
2022-11-08T23:56:39.037Z,100.00
2022-11-08T23:59:05.500Z,100.00
